Time;durP1;ratioP1;P1;durP2;ratioP2;P2;SDS_P1;SDS_P2;PMS_P1;PMS_P2;Temp;Humidity;BMP_temperature;BMP_pressure;BME280_temperature;BME280_humidity;BME280_pressure;Samples;Min_cycle;Max_cycle;Signal;HPM_P1;HPM_P2
2023/07/16 00:02:05;;;;;;;5.80;2.90;;;;;;;17.52;78.35;99163.36;105581;1257;61751;-22
2023/07/16 00:04:32;;;;;;;4.10;3.30;;;;;;;17.87;78.78;99159.34;105392;1254;61122;-22
2023/07/16 00:07:01;;;;;;;6.90;3.70;;;;;;;18.28;77.51;99158.60;105589;1253;73062;-23
2023/07/16 00:09:28;;;;;;;5.30;4.00;;;;;;;18.25;76.89;99152.42;105446;1254;74139;-23
2023/07/16 00:11:56;;;;;;;8.30;4.00;;;;;;;18.02;77.02;99152.30;105555;1255;72806;-22
2023/07/16 00:14:23;;;;;;;12.40;7.10;;;;;;;17.73;77.63;99149.63;105609;1254;61064;-22
2023/07/16 00:16:50;;;;;;;10.20;7.20;;;;;;;17.41;78.39;99147.45;105710;1258;61086;-22
2023/07/16 00:19:18;;;;;;;6.30;3.80;;;;;;;17.17;79.44;99148.00;105620;1254;73063;-22
2023/07/16 00:21:45;;;;;;;4.30;3.20;;;;;;;17.54;79.44;99148.88;105689;1257;74218;-22
2023/07/16 00:24:12;;;;;;;11.30;7.20;;;;;;;17.98;77.65;99146.56;105621;1253;72709;-23
2023/07/16 00:26:39;;;;;;;5.70;4.40;;;;;;;17.97;77.02;99147.27;105630;1254;60975;-22
2023/07/16 00:29:07;;;;;;;6.30;4.00;;;;;;;17.76;77.03;99147.93;105560;1254;61151;-22
2023/07/16 00:31:35;;;;;;;6.90;4.40;;;;;;;17.46;77.36;99147.16;105724;1253;73105;-22
2023/07/16 00:34:02;;;;;;;10.20;4.40;;;;;;;17.17;78.53;99145.30;105631;1253;74329;-23
2023/07/16 00:36:29;;;;;;;8.00;3.00;;;;;;;16.94;79.55;99146.66;105606;1254;72652;-23
2023/07/16 00:38:56;;;;;;;5.10;3.00;;;;;;;17.32;79.96;99148.58;105572;1254;61173;-23
2023/07/16 00:41:22;;;;;;;4.50;3.40;;;;;;;17.78;78.83;99148.23;105610;1256;61269;-22
2023/07/16 00:43:50;;;;;;;5.10;3.40;;;;;;;17.81;78.12;99144.53;105720;1254;73654;-22
2023/07/16 00:46:18;;;;;;;4.70;3.60;;;;;;;17.61;78.13;99140.77;105705;1255;74234;-22
2023/07/16 00:48:46;;;;;;;5.10;3.60;;;;;;;17.34;78.65;99138.07;105570;1254;72691;-23
2023/07/16 00:51:14;;;;;;;7.50;3.70;;;;;;;17.07;79.32;99136.74;105617;1253;61119;-22
2023/07/16 00:53:41;;;;;;;10.20;2.50;;;;;;;16.86;80.30;99136.16;105566;1260;61187;-22
2023/07/16 00:56:08;;;;;;;6.30;2.80;;;;;;;17.26;80.45;99133.33;105612;1255;73947;-22
2023/07/16 00:58:36;;;;;;;5.40;3.80;;;;;;;17.74;79.01;99128.48;105723;1254;74750;-23
2023/07/16 01:01:03;;;;;;;5.80;3.20;;;;;;;17.77;78.28;99128.88;105647;1254;72659;-22
2023/07/16 01:03:30;;;;;;;4.90;3.50;;;;;;;17.58;78.18;99129.16;105618;1253;61050;-23
2023/07/16 01:06:10;;;;;;;4.10;3.60;;;;;;;17.31;78.60;99126.83;105588;1256;61831;-22
2023/07/16 01:09:03;;;;;;;5.20;3.60;;;;;;;17.01;79.34;99134.36;105424;1253;73919;-23
2023/07/16 01:11:30;;;;;;;4.20;2.60;;;;;;;16.79;80.40;99133.52;105669;1255;74405;-23
2023/07/16 01:13:58;;;;;;;5.70;3.40;;;;;;;17.29;80.06;99131.23;105567;1254;72738;-22
2023/07/16 01:16:25;;;;;;;5.90;3.50;;;;;;;17.71;78.68;99132.45;105538;1253;61142;-23
2023/07/16 01:18:52;;;;;;;4.20;3.60;;;;;;;17.68;77.97;99135.76;105637;1257;61113;-23
2023/07/16 01:21:21;;;;;;;5.30;3.70;;;;;;;17.42;78.05;99127.73;105577;1257;73849;-22
2023/07/16 01:24:10;;;;;;;5.40;3.30;;;;;;;17.12;78.50;99121.89;105600;1255;74226;-22
2023/07/16 01:26:46;;;;;;;5.70;3.50;;;;;;;16.82;79.36;99126.59;105602;1255;72611;-22
2023/07/16 01:29:20;;;;;;;10.90;2.10;;;;;;;16.58;80.17;99125.25;105656;1254;62009;-22
2023/07/16 01:31:47;;;;;;;5.10;2.90;;;;;;;16.97;79.84;99123.21;105306;1261;61180;-22
2023/07/16 01:34:14;;;;;;;3.50;2.90;;;;;;;17.41;78.34;99127.33;105712;1254;73736;-22
2023/07/16 01:36:41;;;;;;;5.50;3.40;;;;;;;17.43;78.07;99121.47;105625;1253;73390;-22
2023/07/16 01:39:08;;;;;;;4.10;3.30;;;;;;;17.23;78.24;99119.59;105762;1257;72465;-22
2023/07/16 01:41:36;;;;;;;4.70;3.30;;;;;;;16.97;78.76;99114.98;105617;1253;61153;-22
2023/07/16 01:44:03;;;;;;;4.80;4.00;;;;;;;16.71;79.45;99113.53;105706;1254;61091;-24
2023/07/16 01:46:31;;;;;;;3.80;2.20;;;;;;;16.47;80.49;99115.18;105610;1254;74380;-23
2023/07/16 01:48:58;;;;;;;6.60;2.60;;;;;;;16.83;80.94;99114.52;105689;1254;74358;-23
2023/07/16 01:51:25;;;;;;;4.70;2.50;;;;;;;17.28;79.33;99113.73;105732;1254;72700;-24
2023/07/16 01:53:52;;;;;;;4.70;3.00;;;;;;;17.28;78.77;99112.71;105607;1253;61105;-23
2023/07/16 01:56:19;;;;;;;5.20;3.60;;;;;;;17.06;78.58;99106.16;105608;1257;61144;-23
2023/07/16 01:58:48;;;;;;;3.80;3.40;;;;;;;16.79;79.19;99105.12;105723;1253;73855;-23
2023/07/16 02:01:15;;;;;;;4.30;3.50;;;;;;;16.52;79.68;99105.73;105664;1254;74859;-23
2023/07/16 02:03:42;;;;;;;3.10;2.50;;;;;;;16.29;80.73;99107.73;105496;1254;72753;-23
2023/07/16 02:06:09;;;;;;;5.00;2.70;;;;;;;16.67;81.14;99105.89;105427;1254;61075;-23
2023/07/16 02:08:36;;;;;;;3.90;3.40;;;;;;;17.13;79.58;99109.65;105571;1258;61183;-23
2023/07/16 02:11:03;;;;;;;6.00;3.70;;;;;;;17.16;78.73;99107.56;105521;1253;73704;-23
2023/07/16 02:13:30;;;;;;;11.00;7.60;;;;;;;16.98;79.03;99106.41;105652;1257;74820;-23
2023/07/16 02:15:58;;;;;;;14.20;10.00;;;;;;;16.75;79.32;99107.81;105664;1253;72458;-23
2023/07/16 02:18:25;;;;;;;12.10;8.10;;;;;;;16.50;79.66;99108.35;105454;1253;61033;-23
2023/07/16 02:20:52;;;;;;;9.00;5.20;;;;;;;16.30;80.49;99106.75;105569;1257;61164;-23
2023/07/16 02:23:19;;;;;;;21.10;14.80;;;;;;;16.71;80.72;99108.44;105563;1253;73908;-23
2023/07/16 02:25:46;;;;;;;21.10;13.00;;;;;;;17.20;79.04;99107.70;105551;1253;73393;-23
2023/07/16 02:28:16;;;;;;;21.10;16.60;;;;;;;17.23;78.25;99106.92;105622;1253;73222;-23
2023/07/16 02:30:43;;;;;;;16.10;11.70;;;;;;;17.05;78.10;99102.06;105454;1254;61157;-23
2023/07/16 02:33:11;;;;;;;11.30;8.20;;;;;;;16.81;78.60;99103.73;105584;1257;61265;-23
2023/07/16 02:35:39;;;;;;;9.30;7.00;;;;;;;16.55;78.95;99102.70;105656;1253;73808;-23
2023/07/16 02:38:06;;;;;;;8.00;4.70;;;;;;;16.37;79.92;99098.89;105608;1258;74314;-23
2023/07/16 02:40:34;;;;;;;8.90;4.10;;;;;;;16.78;80.20;99101.67;105604;1253;72716;-23
2023/07/16 02:43:01;;;;;;;5.30;4.30;;;;;;;17.32;78.60;99108.13;105669;1253;61065;-23
2023/07/16 02:45:28;;;;;;;4.60;3.80;;;;;;;17.49;77.68;99107.54;105597;1257;61094;-23
2023/07/16 02:47:54;;;;;;;5.00;3.70;;;;;;;17.51;77.08;99108.00;105647;1253;72825;-23
2023/07/16 02:50:22;;;;;;;6.60;3.70;;;;;;;17.46;76.31;99115.35;105682;1253;74334;-23
2023/07/16 02:52:49;;;;;;;6.10;3.80;;;;;;;17.37;76.12;99115.63;105651;1257;72475;-23
2023/07/16 02:55:16;;;;;;;3.50;3.00;;;;;;;17.34;76.61;99117.86;105660;1254;61973;-23
2023/07/16 02:57:43;;;;;;;6.60;3.30;;;;;;;17.94;76.42;99114.17;105713;1254;61132;-23
2023/07/16 03:00:11;;;;;;;7.60;4.90;;;;;;;18.61;73.96;99115.34;105652;1253;74252;-24
2023/07/16 03:02:38;;;;;;;13.70;8.90;;;;;;;18.87;72.79;99114.08;105686;1258;74469;-23
2023/07/16 03:05:06;;;;;;;22.70;15.20;;;;;;;18.91;72.03;99115.20;105515;1254;72580;-23
2023/07/16 03:07:34;;;;;;;49.30;29.10;;;;;;;18.90;71.90;99118.39;105619;1258;61173;-23
2023/07/16 03:10:02;;;;;;;41.90;26.30;;;;;;;18.86;71.70;99116.62;105646;1257;61190;-23
2023/07/16 03:12:29;;;;;;;53.90;35.90;;;;;;;18.75;72.15;99119.34;105723;1253;73825;-24
2023/07/16 03:15:00;;;;;;;56.60;37.60;;;;;;;18.67;72.67;99118.88;105592;1257;74366;-23
2023/07/16 03:17:27;;;;;;;44.80;29.10;;;;;;;19.27;71.71;99116.71;105598;1253;72717;-23
2023/07/16 03:19:54;;;;;;;29.90;23.40;;;;;;;19.97;69.43;99119.14;105644;1254;61156;-23
2023/07/16 03:22:22;;;;;;;35.20;27.30;;;;;;;20.29;68.53;99120.89;105658;1254;61098;-23
2023/07/16 03:24:49;;;;;;;25.70;19.60;;;;;;;20.38;68.09;99122.36;105681;1253;73631;-23
2023/07/16 03:27:17;;;;;;;16.80;13.40;;;;;;;20.37;68.02;99122.65;105677;1256;74395;-23
2023/07/16 03:29:49;;;;;;;13.80;10.30;;;;;;;20.31;67.88;99123.98;105550;1253;72702;-22
2023/07/16 03:32:17;;;;;;;10.60;8.50;;;;;;;20.30;68.30;99125.42;105613;1258;61104;-23
2023/07/16 03:34:45;;;;;;;10.60;7.50;;;;;;;20.36;67.79;99126.38;105614;1253;61053;-23
2023/07/16 03:37:11;;;;;;;11.10;7.30;;;;;;;20.44;67.84;99130.95;105711;1253;73736;-23
2023/07/16 03:39:39;;;;;;;6.40;4.40;;;;;;;20.56;68.23;99132.33;105706;1253;74137;-23
2023/07/16 03:42:06;;;;;;;8.40;3.80;;;;;;;21.31;67.23;99132.65;105691;1253;72693;-23
2023/07/16 03:44:34;;;;;;;8.40;4.20;;;;;;;22.14;65.04;99133.19;105496;1254;61122;-23
2023/07/16 03:47:02;;;;;;;4.30;3.80;;;;;;;22.45;63.80;99139.59;105555;1253;61261;-23
2023/07/16 03:49:29;;;;;;;8.80;3.90;;;;;;;22.32;63.80;99136.30;105527;1253;73765;-23
2023/07/16 03:51:57;;;;;;;8.30;3.90;;;;;;;22.11;64.03;99133.19;105484;1257;73109;-24
2023/07/16 03:54:24;;;;;;;6.30;4.50;;;;;;;21.92;64.34;99133.92;105441;1258;72470;-23
2023/07/16 03:56:51;;;;;;;5.30;4.80;;;;;;;21.82;64.72;99128.01;105614;1253;61066;-23
2023/07/16 03:59:19;;;;;;;5.60;4.60;;;;;;;21.78;64.95;99129.78;105614;1257;61299;-23
2023/07/16 04:01:46;;;;;;;8.20;5.50;;;;;;;21.78;64.99;99126.11;105596;1253;73815;-23
2023/07/16 04:04:13;;;;;;;6.50;5.60;;;;;;;21.78;65.04;99124.52;105612;1253;74901;-23
2023/07/16 04:06:40;;;;;;;4.90;4.30;;;;;;;21.81;65.19;99126.20;105546;1253;72356;-23
2023/07/16 04:09:08;;;;;;;3.10;2.40;;;;;;;21.90;65.62;99122.58;105464;1254;61843;-23
2023/07/16 04:11:35;;;;;;;3.90;2.60;;;;;;;22.58;65.24;99123.47;105558;1256;61065;-23
2023/07/16 04:14:02;;;;;;;3.60;3.00;;;;;;;23.42;63.26;99120.73;105632;1253;74192;-23
2023/07/16 04:16:28;;;;;;;7.00;3.10;;;;;;;23.78;61.93;99124.44;105672;1257;74426;-23
2023/07/16 04:18:55;;;;;;;3.90;2.80;;;;;;;23.89;61.05;99125.04;105624;1253;72429;-23
2023/07/16 04:21:22;;;;;;;4.50;2.90;;;;;;;23.92;60.47;99124.58;105707;1253;61077;-23
2023/07/16 04:23:49;;;;;;;5.40;3.40;;;;;;;23.88;60.53;99122.48;105640;1257;61128;-23
2023/07/16 04:26:16;;;;;;;3.30;2.80;;;;;;;23.95;60.52;99123.48;105710;1253;73146;-23
2023/07/16 04:28:44;;;;;;;8.50;3.20;;;;;;;24.04;59.99;99124.98;105555;1253;73981;-23
2023/07/16 04:31:11;;;;;;;4.10;3.00;;;;;;;24.00;58.75;99125.86;105531;1253;72772;-23
2023/07/16 04:33:38;;;;;;;4.40;2.60;;;;;;;23.99;59.05;99127.29;105546;1253;61003;-24
2023/07/16 04:36:04;;;;;;;5.60;3.20;;;;;;;23.85;57.98;99127.08;105515;1256;61171;-23
2023/07/16 04:38:31;;;;;;;6.00;2.70;;;;;;;23.53;57.91;99126.52;105646;1253;73824;-24
2023/07/16 04:40:58;;;;;;;4.10;2.80;;;;;;;23.06;58.12;99132.02;105501;1254;74388;-23
2023/07/16 04:43:26;;;;;;;3.10;2.60;;;;;;;22.65;58.87;99136.89;105625;1254;72492;-23
2023/07/16 04:45:52;;;;;;;2.80;2.50;;;;;;;22.53;60.05;99132.67;105619;1253;60992;-23
2023/07/16 04:48:19;;;;;;;3.10;2.60;;;;;;;22.73;60.38;99135.60;105606;1254;61111;-23
2023/07/16 04:50:46;;;;;;;3.50;2.40;;;;;;;22.76;59.58;99137.23;105660;1253;73727;-23
2023/07/16 04:53:13;;;;;;;4.00;2.60;;;;;;;22.91;59.46;99134.88;105677;1253;74649;-23
2023/07/16 04:55:40;;;;;;;9.50;2.80;;;;;;;22.95;58.88;99134.23;105716;1253;72620;-23
2023/07/16 04:58:07;;;;;;;6.40;2.40;;;;;;;22.90;58.98;99133.79;105647;1253;61120;-23
2023/07/16 05:00:34;;;;;;;6.20;2.80;;;;;;;23.06;60.28;99134.02;105688;1253;61694;-23
2023/07/16 05:03:01;;;;;;;4.10;2.50;;;;;;;23.35;59.20;99136.34;105668;1253;73797;-23
2023/07/16 05:05:28;;;;;;;5.50;3.10;;;;;;;23.73;58.56;99134.59;105717;1253;74963;-23
2023/07/16 05:07:55;;;;;;;4.10;2.50;;;;;;;23.95;57.13;99136.52;105704;1253;72732;-23
2023/07/16 05:10:22;;;;;;;6.90;2.50;;;;;;;23.88;55.65;99140.77;105647;1253;61142;-23
2023/07/16 05:12:49;;;;;;;4.00;2.60;;;;;;;23.55;56.63;99137.25;105729;1256;61195;-23
2023/07/16 05:15:16;;;;;;;4.40;2.50;;;;;;;23.47;57.03;99137.44;105686;1253;73891;-24
2023/07/16 05:17:43;;;;;;;3.00;2.30;;;;;;;23.41;57.33;99137.52;105735;1258;74415;-23
2023/07/16 05:20:11;;;;;;;4.90;2.80;;;;;;;23.47;57.34;99138.29;105720;1253;72695;-23
2023/07/16 05:22:38;;;;;;;4.00;2.50;;;;;;;23.42;58.01;99136.02;105650;1253;61079;-23
2023/07/16 05:25:06;;;;;;;4.60;2.90;;;;;;;23.53;57.70;99132.84;105640;1255;61104;-23
2023/07/16 05:27:33;;;;;;;4.50;2.30;;;;;;;23.74;57.61;99134.88;105627;1253;72909;-23
2023/07/16 05:30:00;;;;;;;3.60;2.50;;;;;;;23.83;56.65;99133.63;105705;1257;74383;-23
2023/07/16 05:32:27;;;;;;;4.20;2.30;;;;;;;24.01;57.07;99134.55;105545;1253;73072;-23
2023/07/16 05:34:55;;;;;;;3.10;2.50;;;;;;;23.96;55.16;99132.64;105549;1253;61212;-23
2023/07/16 05:37:21;;;;;;;3.90;2.30;;;;;;;24.13;55.67;99136.76;105585;1257;61134;-23
2023/07/16 05:39:48;;;;;;;3.20;2.60;;;;;;;24.19;54.51;99141.65;105666;1253;73894;-23
2023/07/16 05:42:15;;;;;;;2.60;2.10;;;;;;;24.29;52.92;99138.92;105532;1257;74760;-21
2023/07/16 05:44:44;;;;;;;6.00;2.10;;;;;;;24.34;53.49;99138.48;105641;1253;72540;-22
2023/07/16 05:47:10;;;;;;;2.60;2.10;;;;;;;24.57;53.44;99136.68;105629;1253;61065;-21
2023/07/16 05:49:37;;;;;;;3.80;2.20;;;;;;;24.57;52.50;99137.79;105620;1257;61174;-22
2023/07/16 05:52:05;;;;;;;3.90;2.30;;;;;;;24.55;51.67;99142.13;105673;1253;73792;-22
2023/07/16 05:54:33;;;;;;;3.30;2.20;;;;;;;24.39;50.94;99145.34;105491;1255;74314;-23
2023/07/16 05:57:00;;;;;;;3.80;2.40;;;;;;;24.33;50.46;99143.28;105375;1253;70872;-23
2023/07/16 05:59:27;;;;;;;3.90;2.40;;;;;;;24.13;51.31;99147.11;105486;1253;61194;-22
2023/07/16 06:01:57;;;;;;;4.50;2.40;;;;;;;24.15;51.43;99150.30;105669;1257;61731;-22
2023/07/16 06:04:24;;;;;;;3.30;2.30;;;;;;;23.97;51.24;99149.33;105700;1253;73813;-22
2023/07/16 06:06:52;;;;;;;5.60;2.90;;;;;;;23.82;51.66;99150.69;105676;1253;74379;-22
2023/07/16 06:09:19;;;;;;;2.80;2.10;;;;;;;23.82;52.60;99153.34;105642;1253;72750;-23
2023/07/16 06:11:47;;;;;;;4.30;2.60;;;;;;;23.87;52.53;99151.52;105664;1253;61154;-23
2023/07/16 06:14:15;;;;;;;3.50;2.50;;;;;;;23.87;52.50;99146.69;105644;1259;61175;-22
2023/07/16 06:16:42;;;;;;;3.50;2.20;;;;;;;23.91;53.23;99148.48;105479;1253;73697;-22
2023/07/16 06:19:09;;;;;;;4.00;2.50;;;;;;;24.13;53.71;99150.02;105683;1253;74686;-23
2023/07/16 06:21:36;;;;;;;5.50;2.70;;;;;;;24.32;53.20;99151.04;105728;1253;72691;-22
2023/07/16 06:24:03;;;;;;;8.30;2.70;;;;;;;24.23;51.57;99154.27;105664;1253;61831;-23
2023/07/16 06:26:33;;;;;;;4.50;2.40;;;;;;;24.24;52.09;99156.36;105560;1259;61181;-22
2023/07/16 06:29:00;;;;;;;5.30;2.60;;;;;;;24.34;52.51;99156.21;105672;1253;73850;-23
2023/07/16 06:31:27;;;;;;;4.20;2.70;;;;;;;24.43;52.46;99157.88;105696;1257;74173;-22
2023/07/16 06:33:54;;;;;;;4.20;2.50;;;;;;;24.68;51.96;99157.54;105520;1254;72602;-23
2023/07/16 06:36:21;;;;;;;5.50;2.60;;;;;;;24.72;52.28;99156.61;105614;1253;61043;-22
2023/07/16 06:38:48;;;;;;;5.30;2.90;;;;;;;24.84;52.45;99156.88;105643;1257;61104;-24
2023/07/16 06:41:15;;;;;;;5.10;2.90;;;;;;;25.01;52.21;99157.69;105615;1258;72641;-23
2023/07/16 06:43:42;;;;;;;5.90;3.00;;;;;;;24.96;51.18;99161.83;105697;1253;73148;-22
2023/07/16 06:46:12;;;;;;;10.10;3.10;;;;;;;25.02;51.60;99168.75;105665;1253;74026;-22
2023/07/16 06:48:39;;;;;;;4.80;3.20;;;;;;;25.17;51.25;99168.66;105615;1253;61055;-22
2023/07/16 06:51:06;;;;;;;5.40;3.20;;;;;;;25.27;50.23;99165.83;105664;1257;61125;-22
2023/07/16 06:53:33;;;;;;;5.70;2.90;;;;;;;25.33;50.11;99166.89;105699;1253;73817;-22
2023/07/16 06:56:00;;;;;;;5.00;3.00;;;;;;;25.33;50.08;99169.08;105639;1253;74306;-22
2023/07/16 06:58:33;;;;;;;3.70;3.00;;;;;;;25.30;50.59;99166.34;105492;1253;72658;-23
2023/07/16 07:01:01;;;;;;;3.40;3.10;;;;;;;25.46;50.98;99164.70;105318;1253;61109;-23
2023/07/16 07:03:28;;;;;;;4.80;3.20;;;;;;;25.63;50.03;99165.56;105552;1259;61135;-22
2023/07/16 07:05:55;;;;;;;4.90;2.80;;;;;;;25.71;51.35;99165.05;105690;1253;73739;-22
2023/07/16 07:08:22;;;;;;;7.60;3.00;;;;;;;25.87;49.57;99158.91;105675;1257;74311;-22
2023/07/16 07:10:50;;;;;;;4.80;3.20;;;;;;;26.06;49.03;99155.27;105638;1257;72729;-23
2023/07/16 07:13:17;;;;;;;6.00;3.10;;;;;;;26.24;49.19;99152.73;105624;1257;61074;-22
2023/07/16 07:15:44;;;;;;;5.40;3.30;;;;;;;26.34;48.93;99153.26;105685;1254;61139;-22
2023/07/16 07:18:11;;;;;;;5.40;2.90;;;;;;;26.21;47.84;99148.45;105743;1257;73689;-22
2023/07/16 07:20:40;;;;;;;5.10;3.30;;;;;;;26.20;47.17;99149.63;105745;1253;74303;-22
2023/07/16 07:23:07;;;;;;;4.80;3.20;;;;;;;26.34;48.19;99149.00;105667;1258;71584;-22
2023/07/16 07:25:35;;;;;;;5.50;3.30;;;;;;;26.63;47.82;99145.89;105625;1258;61066;-22
2023/07/16 07:28:02;;;;;;;5.40;3.40;;;;;;;26.70;47.42;99143.34;105690;1257;61241;-22
2023/07/16 07:30:29;;;;;;;3.50;2.80;;;;;;;26.70;47.66;99142.64;105707;1253;73759;-22
2023/07/16 07:32:56;;;;;;;3.80;2.80;;;;;;;26.68;46.94;99144.48;105699;1257;74652;-23
2023/07/16 07:35:24;;;;;;;4.50;3.40;;;;;;;26.73;46.89;99148.36;105612;1253;72538;-22
2023/07/16 07:37:51;;;;;;;8.40;3.30;;;;;;;26.95;47.98;99148.39;105701;1253;61151;-22
2023/07/16 07:40:19;;;;;;;5.00;3.10;;;;;;;27.06;46.39;99142.66;105749;1258;61159;-22
2023/07/16 07:42:46;;;;;;;5.00;3.20;;;;;;;27.09;46.67;99142.70;105644;1253;73653;-22
2023/07/16 07:45:13;;;;;;;3.50;3.10;;;;;;;27.28;47.03;99146.55;105642;1258;74484;-23
2023/07/16 07:47:41;;;;;;;8.90;3.30;;;;;;;27.47;46.70;99143.77;105601;1253;71730;-23
2023/07/16 07:50:09;;;;;;;5.30;3.10;;;;;;;27.74;46.57;99140.23;105673;1253;61046;-22
2023/07/16 07:52:36;;;;;;;4.50;2.60;;;;;;;27.75;44.94;99142.12;105684;1258;61184;-22
2023/07/16 07:55:03;;;;;;;5.30;3.10;;;;;;;27.92;46.18;99142.09;105713;1253;73485;-23
2023/07/16 07:57:30;;;;;;;3.90;2.70;;;;;;;28.17;45.64;99146.28;105642;1258;74134;-22
2023/07/16 07:59:57;;;;;;;5.70;3.00;;;;;;;28.48;44.37;99144.44;105691;1253;72484;-23
2023/07/16 08:02:24;;;;;;;3.40;2.90;;;;;;;28.32;43.52;99142.11;105511;1253;61086;-23
2023/07/16 08:04:52;;;;;;;9.10;3.10;;;;;;;28.40;43.41;99140.80;105602;1259;61169;-23
2023/07/16 08:07:19;;;;;;;3.80;2.80;;;;;;;28.60;42.51;99138.64;105504;1256;72349;-22
2023/07/16 08:09:46;;;;;;;3.80;3.10;;;;;;;28.78;42.71;99133.55;105673;1257;74402;-22
2023/07/16 08:12:14;;;;;;;5.90;2.70;;;;;;;28.87;41.93;99130.41;105746;1253;72553;-22
2023/07/16 08:14:42;;;;;;;3.90;2.30;;;;;;;28.99;43.90;99129.58;105669;1253;61075;-23
2023/07/16 08:17:09;;;;;;;4.20;2.60;;;;;;;29.36;43.16;99124.60;105709;1258;61097;-23
2023/07/16 08:19:38;;;;;;;3.00;2.30;;;;;;;29.64;41.87;99125.30;105743;1253;73726;-22
2023/07/16 08:22:05;;;;;;;3.60;2.50;;;;;;;29.78;40.72;99122.46;105723;1258;74317;-22
2023/07/16 08:24:32;;;;;;;4.70;2.70;;;;;;;29.63;39.77;99120.94;105492;1253;63828;-22
2023/07/16 08:27:00;;;;;;;3.20;2.10;;;;;;;29.46;39.99;99115.64;105507;1254;61033;-23
2023/07/16 08:29:27;;;;;;;3.50;2.60;;;;;;;29.75;40.62;99117.05;105561;1258;61146;-22
2023/07/16 08:31:54;;;;;;;5.10;2.60;;;;;;;30.07;39.98;99113.63;105604;1253;73647;-22
2023/07/16 08:34:21;;;;;;;6.60;3.00;;;;;;;30.18;38.69;99112.63;105618;1253;65775;-22
2023/07/16 08:36:48;;;;;;;5.00;2.80;;;;;;;30.16;37.31;99114.16;105737;1253;64124;-22
2023/07/16 08:39:19;;;;;;;3.00;2.70;;;;;;;29.81;37.46;99117.71;105698;1253;60994;-22
2023/07/16 08:41:48;;;;;;;6.10;2.70;;;;;;;29.85;38.67;99119.60;105672;1253;61180;-23
2023/07/16 08:44:15;;;;;;;3.00;2.60;;;;;;;30.11;38.37;99115.70;103731;1257;2751133;-22
2023/07/16 08:46:42;;;;;;;6.10;2.50;;;;;;;30.17;38.22;99116.52;105696;1253;61086;-22
2023/07/16 08:49:09;;;;;;;2.40;2.20;;;;;;;30.35;37.72;99117.98;105707;1254;61154;-23
2023/07/16 08:51:36;;;;;;;7.70;2.70;;;;;;;30.57;37.69;99116.20;105500;1253;61087;-23
2023/07/16 08:54:04;;;;;;;7.70;2.80;;;;;;;30.61;38.48;99115.29;105554;1255;61311;-23
2023/07/16 08:56:31;;;;;;;3.70;2.50;;;;;;;30.38;38.16;99118.39;105473;1253;65229;-23
2023/07/16 08:58:58;;;;;;;5.30;2.60;;;;;;;30.27;36.77;99110.12;105719;1253;65726;-23
2023/07/16 09:01:25;;;;;;;5.60;2.60;;;;;;;30.39;37.19;99114.21;105705;1253;63814;-22
2023/07/16 09:03:52;;;;;;;4.90;2.50;;;;;;;30.38;37.71;99117.75;105530;1253;61067;-23
2023/07/16 09:06:19;;;;;;;4.90;2.70;;;;;;;30.36;37.90;99116.70;105663;1257;61132;-22
2023/07/16 09:08:46;;;;;;;4.00;2.60;;;;;;;30.47;37.46;99111.00;105526;1253;65146;-23
2023/07/16 09:11:14;;;;;;;4.40;2.60;;;;;;;30.67;38.03;99110.71;105487;1253;65793;-23
2023/07/16 09:13:44;;;;;;;6.00;2.60;;;;;;;30.81;37.15;99110.83;105656;1253;64085;-23
2023/07/16 09:16:11;;;;;;;5.30;2.60;;;;;;;31.04;38.10;99108.92;105548;1253;61154;-22
2023/07/16 09:18:39;;;;;;;4.00;2.90;;;;;;;31.21;37.86;99110.73;105590;1253;61164;-22
2023/07/16 09:21:06;;;;;;;3.60;2.20;;;;;;;30.99;36.83;99110.95;105646;1253;65196;-24
2023/07/16 09:23:34;;;;;;;3.80;2.30;;;;;;;30.99;38.09;99115.95;105626;1253;65620;-23
2023/07/16 09:26:01;;;;;;;3.00;2.10;;;;;;;31.35;37.62;99112.09;105537;1253;63947;-22
2023/07/16 09:28:32;;;;;;;5.40;2.50;;;;;;;31.70;36.16;99105.86;105717;1253;61080;-23
2023/07/16 09:31:06;;;;;;;5.10;2.60;;;;;;;31.78;36.45;99104.16;105617;1255;61151;-22
2023/07/16 09:33:34;;;;;;;5.60;2.40;;;;;;;32.21;35.50;99101.89;105817;1253;65124;-23
2023/07/16 09:36:03;;;;;;;9.70;2.50;;;;;;;32.52;35.55;99102.59;105795;1253;65708;-23
2023/07/16 09:38:30;;;;;;;6.40;2.40;;;;;;;32.66;36.84;99099.42;105724;1253;64004;-23
2023/07/16 09:40:59;;;;;;;3.50;2.50;;;;;;;32.85;35.09;99094.77;105822;1253;61007;-22
2023/07/16 09:43:26;;;;;;;4.90;2.80;;;;;;;32.92;34.57;99090.73;105681;1258;61071;-23
2023/07/16 09:45:53;;;;;;;5.50;2.50;;;;;;;32.90;34.71;99090.25;105749;1257;64927;-22
2023/07/16 09:48:21;;;;;;;3.30;2.20;;;;;;;32.77;34.07;99094.23;105770;1253;65499;-23
2023/07/16 09:50:52;;;;;;;4.40;2.40;;;;;;;32.56;34.29;99094.84;105793;1253;62621;-23
2023/07/16 09:53:21;;;;;;;4.30;2.30;;;;;;;32.57;35.69;99092.30;105661;1260;61184;-23
2023/07/16 09:55:48;;;;;;;3.40;2.30;;;;;;;32.17;35.13;99095.64;105748;1253;61162;-23
2023/07/16 09:58:19;;;;;;;3.90;2.50;;;;;;;31.71;36.00;99099.66;105769;1258;65258;-23
2023/07/16 10:00:47;;;;;;;3.20;2.90;;;;;;;31.28;36.34;99097.14;105679;1259;65742;-23
2023/07/16 10:03:15;;;;;;;2.60;2.00;;;;;;;30.79;37.92;99100.69;105504;1253;64161;-23
2023/07/16 10:05:43;;;;;;;4.90;2.40;;;;;;;30.76;37.24;99099.59;105423;1253;61186;-23
2023/07/16 10:08:17;;;;;;;4.30;2.30;;;;;;;31.00;38.66;99094.27;105546;1254;61153;-23
2023/07/16 10:10:49;;;;;;;5.50;2.70;;;;;;;31.24;37.17;99091.70;105641;1259;64901;-23
2023/07/16 10:13:16;;;;;;;3.30;2.30;;;;;;;31.30;35.77;99089.48;105779;1253;65517;-23
2023/07/16 10:15:56;;;;;;;4.80;2.60;;;;;;;31.62;35.67;99089.13;105708;1253;63889;-23
2023/07/16 10:18:30;;;;;;;2.80;2.50;;;;;;;31.85;36.02;99090.94;105695;1256;61169;-23
2023/07/16 10:21:07;;;;;;;4.10;2.80;;;;;;;32.13;37.03;99088.53;105721;1256;61166;-23
2023/07/16 10:23:38;;;;;;;3.10;2.40;;;;;;;32.47;35.32;99086.37;105729;1257;64996;-23
2023/07/16 10:26:06;;;;;;;3.20;2.80;;;;;;;32.10;34.66;99084.31;105687;1253;65792;-23
2023/07/16 10:28:34;;;;;;;3.00;2.60;;;;;;;32.17;34.64;99088.75;105596;1258;64102;-23
2023/07/16 10:31:01;;;;;;;4.20;2.70;;;;;;;32.57;33.23;99082.26;105490;1253;61128;-23
2023/07/16 10:33:28;;;;;;;3.40;2.80;;;;;;;33.07;33.07;99083.45;105607;1255;61165;-23
2023/07/16 10:35:58;;;;;;;5.00;2.60;;;;;;;33.14;33.83;99080.33;105416;1258;65000;-22
2023/07/16 10:38:25;;;;;;;4.10;2.50;;;;;;;33.12;32.52;99080.77;105707;1260;65562;-22
2023/07/16 10:40:52;;;;;;;3.10;2.50;;;;;;;33.28;33.16;99083.52;105785;1253;63896;-23
2023/07/16 10:43:20;;;;;;;3.00;2.30;;;;;;;33.47;34.66;99080.29;105634;1253;61065;-23
2023/07/16 10:45:47;;;;;;;3.20;2.90;;;;;;;33.55;32.42;99081.70;105442;1253;61146;-23
2023/07/16 10:48:15;;;;;;;3.20;2.60;;;;;;;33.76;32.59;99081.76;105510;1253;65292;-23
2023/07/16 10:50:42;;;;;;;2.50;2.20;;;;;;;33.99;33.19;99079.52;105601;1253;65584;-23
2023/07/16 10:53:09;;;;;;;3.90;2.60;;;;;;;33.67;34.55;99083.53;105660;1253;64039;-23
2023/07/16 10:55:37;;;;;;;4.30;2.90;;;;;;;34.03;32.32;99083.19;105557;1255;61104;-23
2023/07/16 10:58:06;;;;;;;4.30;2.70;;;;;;;34.22;32.60;99078.52;105743;1253;61260;-23
2023/07/16 11:00:40;;;;;;;4.30;2.40;;;;;;;34.26;32.31;99078.94;105729;1258;63760;-23
2023/07/16 11:03:08;;;;;;;4.20;2.50;;;;;;;34.01;32.70;99080.23;105396;1253;65711;-23
2023/07/16 11:05:36;;;;;;;3.30;2.40;;;;;;;33.65;32.57;99079.27;105341;1253;63966;-23
2023/07/16 11:08:03;;;;;;;3.80;2.30;;;;;;;33.52;32.58;99076.39;105691;1253;61063;-23
2023/07/16 11:10:31;;;;;;;2.50;2.10;;;;;;;33.52;32.83;99074.81;105727;1253;61104;-23
2023/07/16 11:13:00;;;;;;;3.60;2.30;;;;;;;33.45;32.78;99074.67;105485;1253;67114;-23
2023/07/16 11:15:34;;;;;;;5.60;2.60;;;;;;;33.07;33.22;99074.98;105791;1253;65752;-23
2023/07/16 11:18:02;;;;;;;3.40;2.60;;;;;;;32.83;34.27;99072.23;105465;1256;64058;-23
2023/07/16 11:20:30;;;;;;;4.10;2.10;;;;;;;33.01;33.41;99071.55;105500;1253;61053;-23
2023/07/16 11:23:00;;;;;;;4.30;2.50;;;;;;;33.41;33.31;99067.77;105545;1260;61241;-22
2023/07/16 11:25:29;;;;;;;3.10;2.40;;;;;;;33.27;32.53;99067.21;105755;1257;64996;-23
2023/07/16 11:27:56;;;;;;;3.90;2.10;;;;;;;32.48;33.46;99069.70;105604;1254;65737;-23